Terminal Aerodrome Forecast
Issued by NWS

Home | Current Version | Previous Version | Text Only | Print | Product List | Glossary On
Versions: 1 2 3 4 5 6 7 8 9 10 11 12 13 14 15 16 17 18 19
000
FTUS43 KMQT 262051 AAA
TAFIWD
TAF AMD
KIWD 262051Z 2621/2718 18006KT 3SM -SN SCT008 OVC015
      TEMPO 2621/2701 1 1/2SM -SHSN BKN008
     FM270100 VRB03KT 3SM -SN OVC010
     FM270300 00000KT 6SM BR OVC008
      AMD LTD TO CLD VIS AND WIND=

USA.gov is the U.S. government's official web portal to all federal, state and local government web resources and services.